createdAt,value
2018-06-22T00:02:30.332Z,15.90
2018-06-22T00:07:59.599Z,15.80
2018-06-22T00:13:28.841Z,15.70
2018-06-22T00:18:58.072Z,15.60
2018-06-22T00:24:27.376Z,15.40
2018-06-22T00:29:57.842Z,15.30
2018-06-22T00:35:27.052Z,15.20
2018-06-22T00:40:56.828Z,15.00
2018-06-22T00:46:26.017Z,14.90
2018-06-22T00:51:55.265Z,14.70
2018-06-22T00:57:25.144Z,14.60
2018-06-22T01:02:55.159Z,14.40
2018-06-22T01:08:24.697Z,14.30
2018-06-22T01:13:54.898Z,14.10
2018-06-22T01:19:24.939Z,14.00
2018-06-22T01:24:54.201Z,13.80
2018-06-22T01:30:24.324Z,13.70
2018-06-22T01:35:53.565Z,13.60
2018-06-22T01:41:22.908Z,13.40
2018-06-22T01:46:52.964Z,13.30
2018-06-22T01:52:22.671Z,13.20
2018-06-22T01:57:51.923Z,13.10
2018-06-22T02:03:22.252Z,13.00
2018-06-22T02:08:52.368Z,12.90
2018-06-22T02:14:21.751Z,12.90
2018-06-22T02:19:51.023Z,12.70
2018-06-22T02:25:20.266Z,12.60
2018-06-22T02:30:49.535Z,12.60
2018-06-22T02:36:19.512Z,12.50
2018-06-22T02:41:49.950Z,12.40
2018-06-22T02:47:19.787Z,12.40
2018-06-22T02:52:49.572Z,12.30
2018-06-22T02:58:20.140Z,12.20
2018-06-22T03:03:49.723Z,12.10
2018-06-22T03:09:19.480Z,11.90
2018-06-22T03:14:49.451Z,11.80
2018-06-22T03:20:19.466Z,11.70
2018-06-22T03:25:49.298Z,11.70
2018-06-22T03:31:21.318Z,11.60
2018-06-22T03:36:51.352Z,11.60
2018-06-22T03:42:21.449Z,11.60
2018-06-22T03:48:02.575Z,11.60
2018-06-22T03:53:32.321Z,11.60
2018-06-22T03:59:01.238Z,11.60
2018-06-22T04:04:30.532Z,11.70
2018-06-22T04:09:59.793Z,11.70
2018-06-22T04:15:28.997Z,11.80
2018-06-22T04:20:58.242Z,11.80
2018-06-22T04:26:27.457Z,11.90
2018-06-22T04:31:56.701Z,12.00
2018-06-22T04:37:25.912Z,12.10
2018-06-22T04:42:55.215Z,12.10
2018-06-22T04:48:24.649Z,12.20
2018-06-22T04:53:53.909Z,12.20
2018-06-22T04:59:24.152Z,12.40
2018-06-22T05:04:53.804Z,12.50
2018-06-22T05:10:22.979Z,12.60
2018-06-22T05:15:52.685Z,12.60
2018-06-22T05:21:21.887Z,12.60
2018-06-22T05:26:51.297Z,12.80
2018-06-22T05:32:21.390Z,12.70
2018-06-22T05:37:51.758Z,12.80
2018-06-22T05:43:22.092Z,12.80
2018-06-22T05:48:52.214Z,12.90
2018-06-22T05:54:22.941Z,13.00
2018-06-22T05:59:52.395Z,13.20
2018-06-22T06:05:22.181Z,13.30
2018-06-22T06:10:51.615Z,13.30
2018-06-22T06:16:22.012Z,13.40
2018-06-22T06:21:52.265Z,13.60
2018-06-22T06:27:23.116Z,13.60
2018-06-22T06:32:52.894Z,13.60
2018-06-22T06:38:23.845Z,13.70
2018-06-22T06:43:54.219Z,13.80
2018-06-22T06:49:25.061Z,13.90
2018-06-22T06:54:54.515Z,13.90
2018-06-22T07:00:23.756Z,14.10
2018-06-22T07:05:53.381Z,14.20
2018-06-22T07:11:22.731Z,14.30
2018-06-22T07:16:52.753Z,14.30
2018-06-22T07:22:21.993Z,14.30
2018-06-22T07:27:52.290Z,14.40
2018-06-22T07:33:21.596Z,14.30
2018-06-22T07:38:51.902Z,14.30
2018-06-22T07:44:22.043Z,14.40
2018-06-22T07:49:51.998Z,14.30
2018-06-22T07:55:25.049Z,14.40
2018-06-22T08:00:54.040Z,14.60
2018-06-22T08:06:23.553Z,14.60
2018-06-22T08:11:53.434Z,14.30
2018-06-22T08:17:23.072Z,14.50
2018-06-22T08:22:52.493Z,14.90
2018-06-22T08:28:21.951Z,15.10
2018-06-22T08:33:51.264Z,14.90
2018-06-22T08:39:20.594Z,15.00
2018-06-22T08:44:51.279Z,14.70
2018-06-22T08:50:22.289Z,15.00
2018-06-22T08:55:52.488Z,15.40
2018-06-22T09:01:21.919Z,15.80
2018-06-22T09:06:51.591Z,15.80
2018-06-22T09:12:21.792Z,16.00
2018-06-22T09:17:52.728Z,16.20
2018-06-22T09:23:22.117Z,16.50
2018-06-22T09:28:52.091Z,16.30
2018-06-22T09:34:21.990Z,16.60
2018-06-22T09:39:51.544Z,16.80
2018-06-22T09:45:21.858Z,16.50
2018-06-22T09:50:51.230Z,16.30
2018-06-22T09:56:21.493Z,16.20
2018-06-22T10:01:53.331Z,16.20
2018-06-22T10:07:24.115Z,16.20
2018-06-22T10:12:53.622Z,16.10
2018-06-22T10:18:25.989Z,15.90
2018-06-22T10:23:55.205Z,15.80
2018-06-22T10:29:24.563Z,15.90
2018-06-22T10:34:54.077Z,16.00
2018-06-22T10:40:24.527Z,16.10
2018-06-22T10:45:53.800Z,16.30
2018-06-22T10:51:24.491Z,16.30
2018-06-22T10:56:53.620Z,16.40
2018-06-22T11:02:25.463Z,16.40
2018-06-22T11:07:54.765Z,16.80
2018-06-22T11:13:24.045Z,16.70
2018-06-22T11:18:53.355Z,16.70
2018-06-22T11:24:22.664Z,16.90
2018-06-22T11:29:52.737Z,16.70
2018-06-22T11:35:22.281Z,17.00
2018-06-22T11:40:52.159Z,17.00
2018-06-22T11:46:21.965Z,17.00
2018-06-22T11:51:53.220Z,16.80
2018-06-22T11:57:24.623Z,16.80
2018-06-22T12:02:54.038Z,16.80
2018-06-22T12:08:26.590Z,16.50
2018-06-22T12:13:57.012Z,16.20
2018-06-22T12:19:26.371Z,16.10
2018-06-22T12:24:55.486Z,16.00
2018-06-22T12:30:25.423Z,15.90
2018-06-22T12:35:55.106Z,16.10
2018-06-22T12:41:24.530Z,16.20
2018-06-22T12:46:55.061Z,16.10
2018-06-22T12:52:25.129Z,16.00
2018-06-22T12:57:54.976Z,16.00
2018-06-22T13:03:24.153Z,15.90
2018-06-22T13:08:54.370Z,15.90
2018-06-22T13:14:24.397Z,16.00
2018-06-22T13:19:53.733Z,16.10
2018-06-22T13:25:22.964Z,16.10
2018-06-22T13:30:52.178Z,16.00
2018-06-22T13:36:21.400Z,16.00
2018-06-22T13:41:50.672Z,16.00
2018-06-22T13:47:19.937Z,15.80
2018-06-22T13:52:49.139Z,15.70
2018-06-22T13:58:18.381Z,16.10
2018-06-22T14:03:52.909Z,16.50
2018-06-22T14:09:22.189Z,16.70
2018-06-22T14:14:51.388Z,16.80
2018-06-22T14:20:20.621Z,16.70
2018-06-22T14:25:49.933Z,16.80
2018-06-22T14:31:19.156Z,17.30
2018-06-22T14:36:48.626Z,17.70
2018-06-22T14:42:17.863Z,17.60
2018-06-22T14:47:47.178Z,17.50
2018-06-22T14:53:21.654Z,17.10
2018-06-22T14:58:56.093Z,17.20
2018-06-22T15:04:30.565Z,17.20
2018-06-22T15:09:59.903Z,18.00
2018-06-22T15:15:29.142Z,18.10
2018-06-22T15:20:58.392Z,19.70
2018-06-22T15:26:27.712Z,18.50
2018-06-22T15:31:56.948Z,17.90
2018-06-22T15:37:31.547Z,17.40
2018-06-22T15:43:05.824Z,17.00
2018-06-22T15:48:48.685Z,16.80
2018-06-22T15:54:23.223Z,16.60
2018-06-22T15:59:52.472Z,16.40
2018-06-22T16:05:21.671Z,16.60
2018-06-22T16:10:50.909Z,16.80
2018-06-22T16:16:25.416Z,16.70
2018-06-22T16:23:10.386Z,16.60
2018-06-22T16:28:39.768Z,16.50
2018-06-22T16:34:09.160Z,16.40
2018-06-22T16:39:38.476Z,16.30
2018-06-22T16:45:08.027Z,16.20
2018-06-22T16:50:37.336Z,16.10
2018-06-22T16:56:07.245Z,16.10
2018-06-22T17:01:37.920Z,16.00
2018-06-22T17:07:12.534Z,15.90
2018-06-22T17:12:47.014Z,15.90
2018-06-22T17:18:21.552Z,16.10
2018-06-22T17:23:50.876Z,16.40
2018-06-22T17:29:20.170Z,16.20
2018-06-22T17:34:49.376Z,16.00
2018-06-22T17:40:18.592Z,15.70
2018-06-22T17:45:47.819Z,15.50
2018-06-22T17:51:17.138Z,15.40
2018-06-22T17:56:46.430Z,15.30
2018-06-22T18:02:20.981Z,15.10
2018-06-22T18:07:50.410Z,15.00
2018-06-22T18:13:19.672Z,14.90
2018-06-22T18:18:48.891Z,14.80
2018-06-22T18:24:18.151Z,14.70
2018-06-22T18:29:47.571Z,14.60
2018-06-22T18:35:18.440Z,14.50
2018-06-22T18:40:47.700Z,14.50
2018-06-22T18:46:17.057Z,14.40
2018-06-22T18:51:46.548Z,14.40
2018-06-22T18:59:26.293Z,14.30
2018-06-22T19:04:55.615Z,14.20
2018-06-22T19:10:24.875Z,14.10
2018-06-22T19:15:54.101Z,14.10
2018-06-22T19:21:23.361Z,14.00
2018-06-22T19:26:52.586Z,14.00
2018-06-22T19:32:21.972Z,13.90
2018-06-22T19:37:51.190Z,13.80
2018-06-22T19:44:25.419Z,13.70
2018-06-22T19:49:59.992Z,13.70
2018-06-22T19:55:29.238Z,13.60
2018-06-22T20:00:58.497Z,13.60
2018-06-22T20:06:27.758Z,13.50
2018-06-22T20:11:57.040Z,13.40
2018-06-22T20:17:26.389Z,13.30
2018-06-22T20:22:55.659Z,13.30
2018-06-22T20:28:24.922Z,13.20
2018-06-22T20:33:54.082Z,13.10
2018-06-22T20:39:28.429Z,13.00
2018-06-22T20:45:03.007Z,13.00
2018-06-22T20:50:37.560Z,12.90
2018-06-22T20:56:06.843Z,12.80
2018-06-22T21:01:36.059Z,12.70
2018-06-22T21:07:05.475Z,12.70
2018-06-22T21:12:40.413Z,12.60
2018-06-22T21:18:03.940Z,12.60
2018-06-22T21:23:33.266Z,12.50
2018-06-22T21:29:07.687Z,12.50
2018-06-22T21:34:41.073Z,12.40
2018-06-22T21:40:10.261Z,12.40
2018-06-22T21:45:39.628Z,12.20
2018-06-22T21:51:08.880Z,11.90
2018-06-22T21:56:38.149Z,11.70
2018-06-22T22:02:07.585Z,11.50
2018-06-22T22:07:36.783Z,11.40
2018-06-22T22:13:06.055Z,11.20
2018-06-22T22:18:35.406Z,11.10
2018-06-22T22:24:04.757Z,10.90
2018-06-22T22:29:34.050Z,10.80
2018-06-22T22:35:03.347Z,10.70
2018-06-22T22:40:32.604Z,10.60
2018-06-22T22:46:01.835Z,10.60
2018-06-22T22:51:31.089Z,10.50
2018-06-22T22:57:00.332Z,10.40
2018-06-22T23:02:29.528Z,10.30
2018-06-22T23:07:58.780Z,10.30
2018-06-22T23:13:28.099Z,10.20
2018-06-22T23:18:57.332Z,10.20
2018-06-22T23:24:26.740Z,10.10
2018-06-22T23:29:55.973Z,10.00
2018-06-22T23:35:26.227Z,10.00
2018-06-22T23:40:55.820Z,9.90
2018-06-22T23:46:24.983Z,9.90
2018-06-22T23:51:54.215Z,9.80
2018-06-22T23:57:23.446Z,9.80
